Tuesday, January 22, 2019, 9:03 PM GMT
Back to Local

CWNC, Cobourg, Ont.

Location: , , Canada Lat: 43.95
Local Time: 9:03 PM GMT (21:03 GMT) Lon: -78.167
Time Zone: GMT Elev: 255 ft

Show me the last for .
Show Coded

Time T Td Feel RH Dir Speed Gust Alt SLP Vis Weather Sky Remarks
2019-01-22 20:00 19 15 9 84 90° 8 - - 30.47 0 None
2019-01-22 19:00 17 13 7 84 90° 8 - - 30.51 0 None
2019-01-22 18:00 15 10 6 79 80° 6 - - 30.56 0 None
2019-01-22 17:00 13 7 6 75 90° 5 - - 30.58 0 None
2019-01-22 16:00 12 5 2 74 90° 6 - - 30.61 0 None
2019-01-22 15:00 11 3 5 68 80° 3 - - 30.63 0 None
2019-01-22 14:00 5 -4 -6 66 50° 6 - - 30.63 0 None
2019-01-22 13:00 -4 -11 -16 69 40° 6 - - 30.64 0 None
2019-01-22 12:00 -6 -14 -19 68 10° 6 - - 30.65 0 None
2019-01-22 11:00 -5 -15 -14 62 30° 3 - - 30.63 0 None
2019-01-22 10:00 -6 -14 -17 67 30° 5 - - 30.64 0 None
2019-01-22 09:00 -4 -14 -12 59 10° 3 - - 30.65 0 None
2019-01-22 08:00 -2 -14 -10 53 310° 3 - - 30.64 0 None
2019-01-22 07:00 -1 -15 -9 50 320° 3 - - 30.60 0 None
2019-01-22 06:00 1 -14 -9 47 310° 5 - - 30.59 0 None
2019-01-22 05:00 1 -14 -11 48 340° 6 - - 30.58 0 None
2019-01-22 04:00 1 -13 -20 49 360° 13 20 - 30.53 0 Peak wind: 23 mph (20 kts) from 340° at 24 min
2019-01-22 03:00 1 -13 -21 49 350° 13 22 - 30.53 0 Peak wind: 21 mph (19 kts) from 350° at 37 min
2019-01-22 02:00 2 -13 -18 48 340° 12 17 - 30.52 0 Peak wind: 20 mph (18 kts) from 350° at 37 min
2019-01-22 01:00 2 -10 -13 54 330° 9 - - 30.52 0 None
2019-01-22 00:00 2 -10 -10 56 320° 7 - - 30.51 0 None
2019-01-21 23:00 3 -12 -8 48 320° 6 - - 30.48 0 None
2019-01-21 22:00 5 -13 -9 42 320° 8 - - 30.46 0 None

Support USWX by starting your Amazon purchase here.